sensor_id;sensor_type;location;lat;lon;timestamp;P1;durP1;ratioP1;P2;durP2;ratioP2
63012;SDS011;62113;45.624;11.700;2023-02-11T00:01:27;45.47;;;24.98;;
63012;SDS011;62113;45.624;11.700;2023-02-11T00:03:54;55.35;;;25.13;;
63012;SDS011;62113;45.624;11.700;2023-02-11T00:06:20;51.40;;;24.23;;
63012;SDS011;62113;45.624;11.700;2023-02-11T00:08:46;53.88;;;24.48;;
63012;SDS011;62113;45.624;11.700;2023-02-11T00:11:13;46.30;;;23.17;;
63012;SDS011;62113;45.624;11.700;2023-02-11T00:13:40;49.90;;;24.52;;
63012;SDS011;62113;45.624;11.700;2023-02-11T00:16:07;45.50;;;23.27;;
63012;SDS011;62113;45.624;11.700;2023-02-11T00:18:33;41.88;;;22.45;;
63012;SDS011;62113;45.624;11.700;2023-02-11T00:21:04;47.40;;;23.60;;
63012;SDS011;62113;45.624;11.700;2023-02-11T00:23:31;46.63;;;24.25;;
63012;SDS011;62113;45.624;11.700;2023-02-11T00:25:57;50.72;;;23.10;;
63012;SDS011;62113;45.624;11.700;2023-02-11T00:28:22;48.97;;;22.92;;
63012;SDS011;62113;45.624;11.700;2023-02-11T00:30:57;42.80;;;22.10;;
63012;SDS011;62113;45.624;11.700;2023-02-11T00:33:23;48.38;;;22.60;;
63012;SDS011;62113;45.624;11.700;2023-02-11T00:35:48;43.55;;;22.70;;
63012;SDS011;62113;45.624;11.700;2023-02-11T00:38:14;47.80;;;22.73;;
63012;SDS011;62113;45.624;11.700;2023-02-11T00:40:40;47.17;;;23.48;;
63012;SDS011;62113;45.624;11.700;2023-02-11T00:43:05;47.00;;;23.67;;
63012;SDS011;62113;45.624;11.700;2023-02-11T00:45:31;54.80;;;21.40;;
63012;SDS011;62113;45.624;11.700;2023-02-11T00:47:56;48.75;;;22.95;;
63012;SDS011;62113;45.624;11.700;2023-02-11T00:50:22;57.40;;;24.02;;
63012;SDS011;62113;45.624;11.700;2023-02-11T00:52:48;47.20;;;23.37;;
63012;SDS011;62113;45.624;11.700;2023-02-11T00:55:15;51.60;;;23.15;;
63012;SDS011;62113;45.624;11.700;2023-02-11T00:57:41;48.78;;;22.98;;
63012;SDS011;62113;45.624;11.700;2023-02-11T01:00:07;55.88;;;25.08;;
63012;SDS011;62113;45.624;11.700;2023-02-11T01:02:33;51.47;;;23.98;;
63012;SDS011;62113;45.624;11.700;2023-02-11T01:04:59;51.53;;;22.80;;
63012;SDS011;62113;45.624;11.700;2023-02-11T01:07:25;47.10;;;23.55;;
63012;SDS011;62113;45.624;11.700;2023-02-11T01:12:18;49.63;;;22.90;;
63012;SDS011;62113;45.624;11.700;2023-02-11T01:14:43;46.05;;;21.70;;
63012;SDS011;62113;45.624;11.700;2023-02-11T01:17:09;50.45;;;22.63;;
63012;SDS011;62113;45.624;11.700;2023-02-11T01:19:36;48.87;;;21.53;;
63012;SDS011;62113;45.624;11.700;2023-02-11T01:22:02;52.10;;;23.48;;
63012;SDS011;62113;45.624;11.700;2023-02-11T01:24:28;51.60;;;23.27;;
63012;SDS011;62113;45.624;11.700;2023-02-11T01:26:54;55.25;;;23.50;;
63012;SDS011;62113;45.624;11.700;2023-02-11T01:29:19;45.08;;;22.63;;
63012;SDS011;62113;45.624;11.700;2023-02-11T01:31:45;55.85;;;24.27;;
63012;SDS011;62113;45.624;11.700;2023-02-11T01:34:11;48.08;;;21.60;;
63012;SDS011;62113;45.624;11.700;2023-02-11T01:36:37;48.67;;;24.60;;
63012;SDS011;62113;45.624;11.700;2023-02-11T01:39:02;42.67;;;24.45;;
63012;SDS011;62113;45.624;11.700;2023-02-11T01:41:28;47.45;;;23.48;;
63012;SDS011;62113;45.624;11.700;2023-02-11T01:43:54;49.70;;;22.58;;
63012;SDS011;62113;45.624;11.700;2023-02-11T01:49:03;52.90;;;23.45;;
63012;SDS011;62113;45.624;11.700;2023-02-11T01:51:39;46.40;;;21.48;;
63012;SDS011;62113;45.624;11.700;2023-02-11T01:54:09;48.00;;;22.13;;
63012;SDS011;62113;45.624;11.700;2023-02-11T01:56:56;50.83;;;23.95;;
63012;SDS011;62113;45.624;11.700;2023-02-11T02:02:36;51.92;;;22.02;;
63012;SDS011;62113;45.624;11.700;2023-02-11T02:05:26;44.92;;;22.60;;
63012;SDS011;62113;45.624;11.700;2023-02-11T02:10:46;45.10;;;22.45;;
63012;SDS011;62113;45.624;11.700;2023-02-11T02:13:17;42.08;;;22.27;;
63012;SDS011;62113;45.624;11.700;2023-02-11T02:27:00;44.92;;;21.63;;
63012;SDS011;62113;45.624;11.700;2023-02-11T02:36:08;43.13;;;19.90;;
63012;SDS011;62113;45.624;11.700;2023-02-11T02:41:15;43.40;;;20.30;;
63012;SDS011;62113;45.624;11.700;2023-02-11T02:43:44;44.80;;;21.80;;
63012;SDS011;62113;45.624;11.700;2023-02-11T02:48:43;41.00;;;19.40;;
63012;SDS011;62113;45.624;11.700;2023-02-11T02:51:14;48.70;;;20.20;;
63012;SDS011;62113;45.624;11.700;2023-02-11T02:56:38;54.08;;;20.92;;
63012;SDS011;62113;45.624;11.700;2023-02-11T03:01:56;38.72;;;20.45;;
63012;SDS011;62113;45.624;11.700;2023-02-11T03:10:01;42.17;;;19.83;;
63012;SDS011;62113;45.624;11.700;2023-02-11T03:12:31;38.25;;;19.92;;
63012;SDS011;62113;45.624;11.700;2023-02-11T03:14:58;34.58;;;19.33;;
63012;SDS011;62113;45.624;11.700;2023-02-11T03:17:26;39.10;;;20.20;;
63012;SDS011;62113;45.624;11.700;2023-02-11T03:19:54;39.17;;;20.48;;
63012;SDS011;62113;45.624;11.700;2023-02-11T03:22:33;41.35;;;20.17;;
63012;SDS011;62113;45.624;11.700;2023-02-11T03:25:02;38.97;;;19.42;;
63012;SDS011;62113;45.624;11.700;2023-02-11T03:27:40;44.05;;;19.27;;
63012;SDS011;62113;45.624;11.700;2023-02-11T03:30:15;34.08;;;19.80;;
63012;SDS011;62113;45.624;11.700;2023-02-11T03:32:46;43.10;;;19.48;;
63012;SDS011;62113;45.624;11.700;2023-02-11T03:35:23;35.00;;;19.00;;
63012;SDS011;62113;45.624;11.700;2023-02-11T03:38:00;35.25;;;19.30;;
63012;SDS011;62113;45.624;11.700;2023-02-11T03:40:31;37.90;;;18.88;;
63012;SDS011;62113;45.624;11.700;2023-02-11T03:43:43;45.83;;;19.10;;
63012;SDS011;62113;45.624;11.700;2023-02-11T03:45:52;40.63;;;17.98;;
63012;SDS011;62113;45.624;11.700;2023-02-11T03:48:23;37.15;;;17.60;;
63012;SDS011;62113;45.624;11.700;2023-02-11T03:50:51;30.95;;;17.63;;
63012;SDS011;62113;45.624;11.700;2023-02-11T03:53:20;35.42;;;16.98;;
63012;SDS011;62113;45.624;11.700;2023-02-11T03:55:48;31.65;;;17.90;;
63012;SDS011;62113;45.624;11.700;2023-02-11T03:58:15;28.65;;;15.85;;
63012;SDS011;62113;45.624;11.700;2023-02-11T04:00:41;33.83;;;16.73;;
63012;SDS011;62113;45.624;11.700;2023-02-11T04:05:34;37.20;;;16.33;;
63012;SDS011;62113;45.624;11.700;2023-02-11T04:07:59;33.25;;;16.13;;
63012;SDS011;62113;45.624;11.700;2023-02-11T04:10:25;27.95;;;15.63;;
63012;SDS011;62113;45.624;11.700;2023-02-11T04:12:51;26.50;;;15.32;;
63012;SDS011;62113;45.624;11.700;2023-02-11T04:15:16;30.17;;;15.32;;
63012;SDS011;62113;45.624;11.700;2023-02-11T04:17:42;27.45;;;13.73;;
63012;SDS011;62113;45.624;11.700;2023-02-11T04:20:08;30.92;;;14.65;;
63012;SDS011;62113;45.624;11.700;2023-02-11T04:22:35;33.80;;;14.90;;
63012;SDS011;62113;45.624;11.700;2023-02-11T04:25:01;24.48;;;13.55;;
63012;SDS011;62113;45.624;11.700;2023-02-11T04:27:27;34.42;;;16.30;;
63012;SDS011;62113;45.624;11.700;2023-02-11T04:29:53;29.60;;;14.52;;
63012;SDS011;62113;45.624;11.700;2023-02-11T04:32:19;31.23;;;14.82;;
63012;SDS011;62113;45.624;11.700;2023-02-11T04:34:44;36.58;;;15.18;;
63012;SDS011;62113;45.624;11.700;2023-02-11T04:37:10;31.67;;;15.40;;
63012;SDS011;62113;45.624;11.700;2023-02-11T04:39:36;28.15;;;15.00;;
63012;SDS011;62113;45.624;11.700;2023-02-11T04:42:01;28.95;;;15.32;;
63012;SDS011;62113;45.624;11.700;2023-02-11T04:44:27;31.02;;;15.90;;
63012;SDS011;62113;45.624;11.700;2023-02-11T04:46:53;27.77;;;14.52;;
63012;SDS011;62113;45.624;11.700;2023-02-11T04:49:18;28.15;;;15.07;;
63012;SDS011;62113;45.624;11.700;2023-02-11T04:51:44;34.35;;;17.38;;
63012;SDS011;62113;45.624;11.700;2023-02-11T04:54:10;34.53;;;16.10;;
63012;SDS011;62113;45.624;11.700;2023-02-11T04:56:36;35.20;;;16.05;;
63012;SDS011;62113;45.624;11.700;2023-02-11T04:59:02;33.15;;;16.90;;
63012;SDS011;62113;45.624;11.700;2023-02-11T05:01:28;33.58;;;16.38;;
63012;SDS011;62113;45.624;11.700;2023-02-11T05:03:54;30.67;;;16.90;;
63012;SDS011;62113;45.624;11.700;2023-02-11T05:06:20;26.50;;;15.07;;
63012;SDS011;62113;45.624;11.700;2023-02-11T05:08:46;30.63;;;15.15;;
63012;SDS011;62113;45.624;11.700;2023-02-11T05:11:16;34.78;;;15.77;;
63012;SDS011;62113;45.624;11.700;2023-02-11T05:13:44;28.50;;;14.75;;
63012;SDS011;62113;45.624;11.700;2023-02-11T05:16:10;27.80;;;14.98;;
63012;SDS011;62113;45.624;11.700;2023-02-11T05:18:39;30.73;;;15.60;;
63012;SDS011;62113;45.624;11.700;2023-02-11T05:21:06;32.55;;;17.33;;
63012;SDS011;62113;45.624;11.700;2023-02-11T05:23:33;32.58;;;16.65;;
63012;SDS011;62113;45.624;11.700;2023-02-11T05:25:59;29.33;;;15.70;;
63012;SDS011;62113;45.624;11.700;2023-02-11T05:28:24;34.22;;;15.00;;
63012;SDS011;62113;45.624;11.700;2023-02-11T05:30:50;33.55;;;15.63;;
63012;SDS011;62113;45.624;11.700;2023-02-11T05:33:15;35.00;;;14.93;;
63012;SDS011;62113;45.624;11.700;2023-02-11T05:35:41;40.55;;;21.00;;
63012;SDS011;62113;45.624;11.700;2023-02-11T05:38:07;41.70;;;20.95;;
63012;SDS011;62113;45.624;11.700;2023-02-11T05:40:32;37.78;;;19.90;;
63012;SDS011;62113;45.624;11.700;2023-02-11T05:42:58;53.15;;;21.17;;
63012;SDS011;62113;45.624;11.700;2023-02-11T05:45:23;42.20;;;18.77;;
63012;SDS011;62113;45.624;11.700;2023-02-11T05:47:49;41.13;;;18.02;;
63012;SDS011;62113;45.624;11.700;2023-02-11T05:50:15;32.65;;;17.38;;
63012;SDS011;62113;45.624;11.700;2023-02-11T05:52:40;40.30;;;17.75;;
63012;SDS011;62113;45.624;11.700;2023-02-11T05:55:06;32.47;;;16.60;;
63012;SDS011;62113;45.624;11.700;2023-02-11T05:57:32;31.77;;;14.98;;
63012;SDS011;62113;45.624;11.700;2023-02-11T05:59:58;33.88;;;14.75;;
63012;SDS011;62113;45.624;11.700;2023-02-11T06:02:23;25.67;;;14.52;;
63012;SDS011;62113;45.624;11.700;2023-02-11T06:04:49;26.77;;;14.05;;
63012;SDS011;62113;45.624;11.700;2023-02-11T06:07:15;28.75;;;13.85;;
63012;SDS011;62113;45.624;11.700;2023-02-11T06:09:41;26.98;;;14.27;;
63012;SDS011;62113;45.624;11.700;2023-02-11T06:12:07;33.88;;;13.73;;
63012;SDS011;62113;45.624;11.700;2023-02-11T06:14:32;23.88;;;13.10;;
63012;SDS011;62113;45.624;11.700;2023-02-11T06:16:58;32.13;;;14.27;;
63012;SDS011;62113;45.624;11.700;2023-02-11T06:19:24;34.30;;;13.63;;
63012;SDS011;62113;45.624;11.700;2023-02-11T06:21:49;26.20;;;13.57;;
63012;SDS011;62113;45.624;11.700;2023-02-11T06:24:15;29.60;;;13.85;;
63012;SDS011;62113;45.624;11.700;2023-02-11T06:26:41;25.30;;;12.90;;
63012;SDS011;62113;45.624;11.700;2023-02-11T06:29:06;24.10;;;13.52;;
63012;SDS011;62113;45.624;11.700;2023-02-11T06:31:32;29.08;;;15.40;;
63012;SDS011;62113;45.624;11.700;2023-02-11T06:33:58;29.52;;;13.43;;
63012;SDS011;62113;45.624;11.700;2023-02-11T06:36:24;48.27;;;20.83;;
63012;SDS011;62113;45.624;11.700;2023-02-11T06:38:51;89.35;;;37.90;;
63012;SDS011;62113;45.624;11.700;2023-02-11T06:41:17;76.53;;;33.50;;
63012;SDS011;62113;45.624;11.700;2023-02-11T06:43:47;56.55;;;26.73;;
63012;SDS011;62113;45.624;11.700;2023-02-11T06:46:13;58.63;;;26.45;;
63012;SDS011;62113;45.624;11.700;2023-02-11T06:48:39;79.30;;;35.90;;
63012;SDS011;62113;45.624;11.700;2023-02-11T06:51:06;76.90;;;32.25;;
63012;SDS011;62113;45.624;11.700;2023-02-11T06:53:38;57.30;;;27.67;;
63012;SDS011;62113;45.624;11.700;2023-02-11T06:56:20;55.38;;;25.10;;
63012;SDS011;62113;45.624;11.700;2023-02-11T06:58:47;43.08;;;19.85;;
63012;SDS011;62113;45.624;11.700;2023-02-11T07:01:18;37.97;;;17.45;;
63012;SDS011;62113;45.624;11.700;2023-02-11T07:03:44;56.20;;;23.67;;
63012;SDS011;62113;45.624;11.700;2023-02-11T07:06:12;55.25;;;24.98;;
63012;SDS011;62113;45.624;11.700;2023-02-11T07:08:43;44.60;;;20.35;;
63012;SDS011;62113;45.624;11.700;2023-02-11T07:11:14;60.58;;;29.27;;
63012;SDS011;62113;45.624;11.700;2023-02-11T07:13:41;53.83;;;24.02;;
63012;SDS011;62113;45.624;11.700;2023-02-11T07:16:09;61.90;;;22.77;;
63012;SDS011;62113;45.624;11.700;2023-02-11T07:18:36;33.15;;;17.02;;
63012;SDS011;62113;45.624;11.700;2023-02-11T07:21:06;41.70;;;17.38;;
63012;SDS011;62113;45.624;11.700;2023-02-11T07:23:33;28.15;;;14.65;;
63012;SDS011;62113;45.624;11.700;2023-02-11T07:26:03;30.60;;;16.00;;
63012;SDS011;62113;45.624;11.700;2023-02-11T07:28:30;27.33;;;14.00;;
63012;SDS011;62113;45.624;11.700;2023-02-11T07:30:56;29.15;;;13.43;;
63012;SDS011;62113;45.624;11.700;2023-02-11T07:33:21;33.03;;;14.40;;
63012;SDS011;62113;45.624;11.700;2023-02-11T07:35:47;28.17;;;13.85;;
63012;SDS011;62113;45.624;11.700;2023-02-11T07:38:13;26.17;;;12.63;;
63012;SDS011;62113;45.624;11.700;2023-02-11T07:40:38;27.25;;;12.93;;
63012;SDS011;62113;45.624;11.700;2023-02-11T07:43:04;26.65;;;15.20;;
63012;SDS011;62113;45.624;11.700;2023-02-11T07:45:29;23.85;;;13.55;;
63012;SDS011;62113;45.624;11.700;2023-02-11T07:47:55;28.27;;;13.57;;
63012;SDS011;62113;45.624;11.700;2023-02-11T07:50:21;44.55;;;14.30;;
63012;SDS011;62113;45.624;11.700;2023-02-11T07:52:46;26.80;;;15.35;;
63012;SDS011;62113;45.624;11.700;2023-02-11T07:55:12;27.38;;;14.93;;
63012;SDS011;62113;45.624;11.700;2023-02-11T07:57:37;34.63;;;16.20;;
63012;SDS011;62113;45.624;11.700;2023-02-11T08:00:04;33.45;;;16.55;;
63012;SDS011;62113;45.624;11.700;2023-02-11T08:02:30;32.28;;;15.57;;
63012;SDS011;62113;45.624;11.700;2023-02-11T08:04:55;27.45;;;14.45;;
63012;SDS011;62113;45.624;11.700;2023-02-11T08:07:21;20.55;;;13.15;;
63012;SDS011;62113;45.624;11.700;2023-02-11T08:09:47;22.38;;;13.15;;
63012;SDS011;62113;45.624;11.700;2023-02-11T08:12:12;26.52;;;12.20;;
63012;SDS011;62113;45.624;11.700;2023-02-11T08:14:38;21.13;;;11.85;;
63012;SDS011;62113;45.624;11.700;2023-02-11T08:17:03;19.73;;;12.18;;
63012;SDS011;62113;45.624;11.700;2023-02-11T08:19:29;25.15;;;11.48;;
63012;SDS011;62113;45.624;11.700;2023-02-11T08:21:55;17.92;;;10.48;;
63012;SDS011;62113;45.624;11.700;2023-02-11T08:24:21;23.33;;;12.50;;
63012;SDS011;62113;45.624;11.700;2023-02-11T08:26:47;20.90;;;12.80;;
63012;SDS011;62113;45.624;11.700;2023-02-11T08:29:14;19.92;;;11.30;;
63012;SDS011;62113;45.624;11.700;2023-02-11T08:34:08;21.10;;;10.20;;
63012;SDS011;62113;45.624;11.700;2023-02-11T08:36:36;21.10;;;10.23;;
63012;SDS011;62113;45.624;11.700;2023-02-11T08:39:07;22.50;;;9.52;;
63012;SDS011;62113;45.624;11.700;2023-02-11T08:41:36;15.35;;;8.93;;
63012;SDS011;62113;45.624;11.700;2023-02-11T08:44:02;13.90;;;9.25;;
63012;SDS011;62113;45.624;11.700;2023-02-11T08:46:28;12.85;;;8.52;;
63012;SDS011;62113;45.624;11.700;2023-02-11T08:48:53;18.13;;;9.75;;
63012;SDS011;62113;45.624;11.700;2023-02-11T08:51:20;26.13;;;9.85;;
63012;SDS011;62113;45.624;11.700;2023-02-11T08:53:48;15.82;;;10.00;;
63012;SDS011;62113;45.624;11.700;2023-02-11T08:56:14;22.13;;;9.50;;
63012;SDS011;62113;45.624;11.700;2023-02-11T08:58:41;18.67;;;10.38;;
63012;SDS011;62113;45.624;11.700;2023-02-11T09:01:08;25.58;;;12.43;;
63012;SDS011;62113;45.624;11.700;2023-02-11T09:03:37;24.00;;;13.80;;
63012;SDS011;62113;45.624;11.700;2023-02-11T09:06:04;32.10;;;18.55;;
63012;SDS011;62113;45.624;11.700;2023-02-11T09:08:32;46.42;;;25.13;;
63012;SDS011;62113;45.624;11.700;2023-02-11T09:10:59;58.10;;;33.45;;
63012;SDS011;62113;45.624;11.700;2023-02-11T09:13:25;69.72;;;36.63;;
63012;SDS011;62113;45.624;11.700;2023-02-11T09:15:50;66.50;;;35.97;;
63012;SDS011;62113;45.624;11.700;2023-02-11T09:18:16;53.60;;;29.00;;
63012;SDS011;62113;45.624;11.700;2023-02-11T09:20:42;33.10;;;21.60;;
63012;SDS011;62113;45.624;11.700;2023-02-11T09:23:08;38.00;;;19.83;;
63012;SDS011;62113;45.624;11.700;2023-02-11T09:25:34;32.03;;;16.70;;
63012;SDS011;62113;45.624;11.700;2023-02-11T09:28:02;28.52;;;17.00;;
63012;SDS011;62113;45.624;11.700;2023-02-11T09:30:28;24.43;;;13.33;;
63012;SDS011;62113;45.624;11.700;2023-02-11T09:32:53;20.83;;;11.80;;
63012;SDS011;62113;45.624;11.700;2023-02-11T09:35:19;11.83;;;8.60;;
63012;SDS011;62113;45.624;11.700;2023-02-11T09:37:44;17.53;;;9.17;;
63012;SDS011;62113;45.624;11.700;2023-02-11T09:40:10;11.73;;;8.60;;
63012;SDS011;62113;45.624;11.700;2023-02-11T09:43:00;15.23;;;8.18;;
63012;SDS011;62113;45.624;11.700;2023-02-11T09:45:27;17.08;;;7.85;;
63012;SDS011;62113;45.624;11.700;2023-02-11T09:50:23;14.00;;;8.75;;
63012;SDS011;62113;45.624;11.700;2023-02-11T09:55:33;15.27;;;9.73;;
63012;SDS011;62113;45.624;11.700;2023-02-11T09:58:06;17.38;;;10.23;;
63012;SDS011;62113;45.624;11.700;2023-02-11T10:00:47;18.98;;;10.50;;
63012;SDS011;62113;45.624;11.700;2023-02-11T10:03:38;20.87;;;10.93;;
63012;SDS011;62113;45.624;11.700;2023-02-11T10:06:33;16.75;;;10.95;;
63012;SDS011;62113;45.624;11.700;2023-02-11T10:14:17;28.98;;;14.60;;
63012;SDS011;62113;45.624;11.700;2023-02-11T10:17:11;30.23;;;16.00;;
63012;SDS011;62113;45.624;11.700;2023-02-11T10:24:54;29.30;;;16.88;;
63012;SDS011;62113;45.624;11.700;2023-02-11T10:27:31;29.98;;;16.67;;
63012;SDS011;62113;45.624;11.700;2023-02-11T10:30:08;32.25;;;18.38;;
63012;SDS011;62113;45.624;11.700;2023-02-11T10:32:44;41.08;;;19.17;;
63012;SDS011;62113;45.624;11.700;2023-02-11T10:35:16;27.95;;;15.52;;
63012;SDS011;62113;45.624;11.700;2023-02-11T10:37:45;24.05;;;14.10;;
63012;SDS011;62113;45.624;11.700;2023-02-11T10:40:15;30.23;;;11.68;;
63012;SDS011;62113;45.624;11.700;2023-02-11T10:42:44;26.67;;;12.60;;
63012;SDS011;62113;45.624;11.700;2023-02-11T10:45:18;18.88;;;12.10;;
63012;SDS011;62113;45.624;11.700;2023-02-11T10:47:51;22.08;;;11.95;;
63012;SDS011;62113;45.624;11.700;2023-02-11T10:50:27;19.52;;;12.18;;
63012;SDS011;62113;45.624;11.700;2023-02-11T10:55:54;25.27;;;13.30;;
63012;SDS011;62113;45.624;11.700;2023-02-11T11:00:55;29.77;;;18.23;;
63012;SDS011;62113;45.624;11.700;2023-02-11T11:03:23;35.40;;;18.83;;
63012;SDS011;62113;45.624;11.700;2023-02-11T11:05:52;38.40;;;19.67;;
63012;SDS011;62113;45.624;11.700;2023-02-11T11:08:18;30.25;;;17.63;;
63012;SDS011;62113;45.624;11.700;2023-02-11T11:10:46;28.77;;;16.52;;
63012;SDS011;62113;45.624;11.700;2023-02-11T11:18:40;25.42;;;14.93;;
63012;SDS011;62113;45.624;11.700;2023-02-11T11:23:39;32.25;;;14.40;;
63012;SDS011;62113;45.624;11.700;2023-02-11T11:26:14;28.13;;;16.80;;
63012;SDS011;62113;45.624;11.700;2023-02-11T11:28:42;33.00;;;16.35;;
63012;SDS011;62113;45.624;11.700;2023-02-11T11:31:23;29.95;;;16.48;;
63012;SDS011;62113;45.624;11.700;2023-02-11T11:34:19;23.23;;;14.55;;
63012;SDS011;62113;45.624;11.700;2023-02-11T11:36:46;21.55;;;13.27;;
63012;SDS011;62113;45.624;11.700;2023-02-11T11:39:26;21.75;;;12.43;;
63012;SDS011;62113;45.624;11.700;2023-02-11T11:42:02;17.30;;;11.82;;
63012;SDS011;62113;45.624;11.700;2023-02-11T11:44:38;18.33;;;12.32;;
63012;SDS011;62113;45.624;11.700;2023-02-11T11:49:39;18.58;;;11.52;;
63012;SDS011;62113;45.624;11.700;2023-02-11T11:57:47;19.58;;;11.30;;
63012;SDS011;62113;45.624;11.700;2023-02-11T12:00:23;19.85;;;11.70;;
63012;SDS011;62113;45.624;11.700;2023-02-11T12:03:04;19.02;;;11.25;;
63012;SDS011;62113;45.624;11.700;2023-02-11T12:08:40;22.20;;;11.07;;
63012;SDS011;62113;45.624;11.700;2023-02-11T12:24:55;25.70;;;12.05;;
63012;SDS011;62113;45.624;11.700;2023-02-11T12:44:39;15.98;;;11.20;;
63012;SDS011;62113;45.624;11.700;2023-02-11T12:47:22;14.23;;;9.40;;
63012;SDS011;62113;45.624;11.700;2023-02-11T12:55:46;17.55;;;9.82;;
63012;SDS011;62113;45.624;11.700;2023-02-11T12:58:19;17.95;;;10.20;;
63012;SDS011;62113;45.624;11.700;2023-02-11T13:00:59;14.25;;;10.43;;
63012;SDS011;62113;45.624;11.700;2023-02-11T13:03:47;19.55;;;11.65;;
63012;SDS011;62113;45.624;11.700;2023-02-11T13:06:14;14.35;;;10.27;;
63012;SDS011;62113;45.624;11.700;2023-02-11T13:08:44;21.35;;;10.48;;
63012;SDS011;62113;45.624;11.700;2023-02-11T13:11:17;12.48;;;9.02;;
63012;SDS011;62113;45.624;11.700;2023-02-11T13:13:56;14.20;;;10.38;;
63012;SDS011;62113;45.624;11.700;2023-02-11T13:16:41;18.58;;;10.93;;
63012;SDS011;62113;45.624;11.700;2023-02-11T13:37:51;21.42;;;11.90;;
63012;SDS011;62113;45.624;11.700;2023-02-11T13:42:58;19.00;;;11.40;;
63012;SDS011;62113;45.624;11.700;2023-02-11T13:48:13;19.35;;;11.23;;
63012;SDS011;62113;45.624;11.700;2023-02-11T13:50:49;20.48;;;11.80;;
63012;SDS011;62113;45.624;11.700;2023-02-11T13:53:17;24.42;;;11.40;;
63012;SDS011;62113;45.624;11.700;2023-02-11T14:00:42;25.20;;;14.27;;
63012;SDS011;62113;45.624;11.700;2023-02-11T14:14:15;21.15;;;13.38;;
63012;SDS011;62113;45.624;11.700;2023-02-11T14:22:01;25.13;;;13.68;;
63012;SDS011;62113;45.624;11.700;2023-02-11T14:38:30;23.73;;;14.85;;
63012;SDS011;62113;45.624;11.700;2023-02-11T14:43:43;19.95;;;12.68;;
63012;SDS011;62113;45.624;11.700;2023-02-11T14:46:17;21.77;;;14.02;;
63012;SDS011;62113;45.624;11.700;2023-02-11T14:48:48;21.88;;;14.38;;
63012;SDS011;62113;45.624;11.700;2023-02-11T14:53:49;20.85;;;13.52;;
63012;SDS011;62113;45.624;11.700;2023-02-11T14:56:18;28.52;;;13.27;;
63012;SDS011;62113;45.624;11.700;2023-02-11T14:58:47;20.42;;;13.10;;
63012;SDS011;62113;45.624;11.700;2023-02-11T15:01:26;26.75;;;14.38;;
63012;SDS011;62113;45.624;11.700;2023-02-11T15:03:58;25.17;;;13.25;;
63012;SDS011;62113;45.624;11.700;2023-02-11T15:08:58;27.55;;;15.07;;
63012;SDS011;62113;45.624;11.700;2023-02-11T15:11:29;23.95;;;15.52;;
63012;SDS011;62113;45.624;11.700;2023-02-11T15:13:58;30.83;;;17.52;;
63012;SDS011;62113;45.624;11.700;2023-02-11T15:16:31;28.23;;;18.15;;
63012;SDS011;62113;45.624;11.700;2023-02-11T15:19:01;26.52;;;16.15;;
63012;SDS011;62113;45.624;11.700;2023-02-11T15:21:31;27.60;;;16.58;;
63012;SDS011;62113;45.624;11.700;2023-02-11T15:24:00;32.38;;;18.10;;
63012;SDS011;62113;45.624;11.700;2023-02-11T15:26:30;31.05;;;16.15;;
63012;SDS011;62113;45.624;11.700;2023-02-11T15:28:57;27.08;;;16.92;;
63012;SDS011;62113;45.624;11.700;2023-02-11T15:31:23;33.20;;;16.65;;
63012;SDS011;62113;45.624;11.700;2023-02-11T15:33:51;28.70;;;17.08;;
63012;SDS011;62113;45.624;11.700;2023-02-11T15:36:18;25.48;;;16.38;;
63012;SDS011;62113;45.624;11.700;2023-02-11T15:39:14;26.05;;;17.15;;
63012;SDS011;62113;45.624;11.700;2023-02-11T15:41:41;29.85;;;16.30;;
63012;SDS011;62113;45.624;11.700;2023-02-11T15:44:24;27.83;;;16.85;;
63012;SDS011;62113;45.624;11.700;2023-02-11T15:46:52;29.65;;;18.15;;
63012;SDS011;62113;45.624;11.700;2023-02-11T15:49:18;29.00;;;18.10;;
63012;SDS011;62113;45.624;11.700;2023-02-11T15:51:45;30.05;;;18.10;;
63012;SDS011;62113;45.624;11.700;2023-02-11T15:54:18;34.17;;;18.75;;
63012;SDS011;62113;45.624;11.700;2023-02-11T15:56:47;34.60;;;19.55;;
63012;SDS011;62113;45.624;11.700;2023-02-11T16:01:45;35.15;;;20.98;;
63012;SDS011;62113;45.624;11.700;2023-02-11T16:04:15;34.22;;;20.08;;
63012;SDS011;62113;45.624;11.700;2023-02-11T16:06:45;33.17;;;20.30;;
63012;SDS011;62113;45.624;11.700;2023-02-11T16:17:11;32.80;;;19.98;;
63012;SDS011;62113;45.624;11.700;2023-02-11T16:19:49;32.67;;;19.73;;
63012;SDS011;62113;45.624;11.700;2023-02-11T16:22:18;38.58;;;20.13;;
63012;SDS011;62113;45.624;11.700;2023-02-11T16:24:48;39.92;;;20.20;;
63012;SDS011;62113;45.624;11.700;2023-02-11T16:27:25;36.33;;;20.98;;
63012;SDS011;62113;45.624;11.700;2023-02-11T16:30:00;35.22;;;20.10;;
63012;SDS011;62113;45.624;11.700;2023-02-11T16:32:27;35.67;;;20.60;;
63012;SDS011;62113;45.624;11.700;2023-02-11T16:34:54;39.92;;;21.65;;
63012;SDS011;62113;45.624;11.700;2023-02-11T16:37:22;42.15;;;21.98;;
63012;SDS011;62113;45.624;11.700;2023-02-11T16:39:48;39.08;;;22.85;;
63012;SDS011;62113;45.624;11.700;2023-02-11T16:42:17;39.70;;;21.95;;
63012;SDS011;62113;45.624;11.700;2023-02-11T16:44:42;48.92;;;24.77;;
63012;SDS011;62113;45.624;11.700;2023-02-11T16:47:13;52.10;;;27.98;;
63012;SDS011;62113;45.624;11.700;2023-02-11T16:49:48;91.60;;;39.80;;
63012;SDS011;62113;45.624;11.700;2023-02-11T16:52:14;189.68;;;68.47;;
63012;SDS011;62113;45.624;11.700;2023-02-11T16:54:41;136.90;;;54.33;;
63012;SDS011;62113;45.624;11.700;2023-02-11T16:57:14;112.13;;;57.90;;
63012;SDS011;62113;45.624;11.700;2023-02-11T16:59:41;85.70;;;42.70;;
63012;SDS011;62113;45.624;11.700;2023-02-11T17:02:27;71.85;;;36.80;;
63012;SDS011;62113;45.624;11.700;2023-02-11T17:04:57;55.85;;;28.98;;
63012;SDS011;62113;45.624;11.700;2023-02-11T17:07:24;62.33;;;25.73;;
63012;SDS011;62113;45.624;11.700;2023-02-11T17:09:50;58.90;;;26.23;;
63012;SDS011;62113;45.624;11.700;2023-02-11T17:12:16;52.42;;;26.77;;
63012;SDS011;62113;45.624;11.700;2023-02-11T17:14:42;59.22;;;27.15;;
63012;SDS011;62113;45.624;11.700;2023-02-11T17:17:08;56.08;;;28.52;;
63012;SDS011;62113;45.624;11.700;2023-02-11T17:19:34;49.67;;;26.92;;
63012;SDS011;62113;45.624;11.700;2023-02-11T17:22:00;68.40;;;28.57;;
63012;SDS011;62113;45.624;11.700;2023-02-11T17:24:26;50.88;;;28.15;;
63012;SDS011;62113;45.624;11.700;2023-02-11T17:26:52;62.80;;;32.47;;
63012;SDS011;62113;45.624;11.700;2023-02-11T17:29:20;68.32;;;33.88;;
63012;SDS011;62113;45.624;11.700;2023-02-11T17:31:47;55.58;;;27.48;;
63012;SDS011;62113;45.624;11.700;2023-02-11T17:34:13;63.83;;;31.35;;
63012;SDS011;62113;45.624;11.700;2023-02-11T17:36:38;60.20;;;28.73;;
63012;SDS011;62113;45.624;11.700;2023-02-11T17:39:05;65.93;;;35.33;;
63012;SDS011;62113;45.624;11.700;2023-02-11T17:41:31;95.38;;;42.88;;
63012;SDS011;62113;45.624;11.700;2023-02-11T17:43:56;71.20;;;37.47;;